sensor_id;sensor_type;location;lat;lon;timestamp;P1;durP1;ratioP1;P2;durP2;ratioP2
11139;SDS011;5624;49.388;11.350;2023-05-07T00:01:05;2.47;;;1.50;;
11139;SDS011;5624;49.388;11.350;2023-05-07T00:03:31;2.77;;;1.67;;
11139;SDS011;5624;49.388;11.350;2023-05-07T00:05:57;6.10;;;2.10;;
11139;SDS011;5624;49.388;11.350;2023-05-07T00:08:23;2.20;;;1.60;;
11139;SDS011;5624;49.388;11.350;2023-05-07T00:10:49;3.37;;;1.90;;
11139;SDS011;5624;49.388;11.350;2023-05-07T00:13:15;2.17;;;1.67;;
11139;SDS011;5624;49.388;11.350;2023-05-07T00:15:40;2.97;;;2.23;;
11139;SDS011;5624;49.388;11.350;2023-05-07T00:18:06;6.00;;;2.07;;
11139;SDS011;5624;49.388;11.350;2023-05-07T00:20:31;3.17;;;1.80;;
11139;SDS011;5624;49.388;11.350;2023-05-07T00:22:57;3.07;;;2.30;;
11139;SDS011;5624;49.388;11.350;2023-05-07T00:25:23;3.20;;;2.10;;
11139;SDS011;5624;49.388;11.350;2023-05-07T00:27:48;2.67;;;2.30;;
11139;SDS011;5624;49.388;11.350;2023-05-07T00:30:14;4.47;;;2.43;;
11139;SDS011;5624;49.388;11.350;2023-05-07T00:32:40;3.37;;;2.23;;
11139;SDS011;5624;49.388;11.350;2023-05-07T00:35:05;2.50;;;2.10;;
11139;SDS011;5624;49.388;11.350;2023-05-07T00:37:32;3.83;;;2.23;;
11139;SDS011;5624;49.388;11.350;2023-05-07T00:39:57;3.13;;;2.03;;
11139;SDS011;5624;49.388;11.350;2023-05-07T00:42:23;2.67;;;1.97;;
11139;SDS011;5624;49.388;11.350;2023-05-07T00:44:49;3.63;;;2.33;;
11139;SDS011;5624;49.388;11.350;2023-05-07T00:47:15;4.47;;;2.37;;
11139;SDS011;5624;49.388;11.350;2023-05-07T00:49:42;5.97;;;2.30;;
11139;SDS011;5624;49.388;11.350;2023-05-07T00:52:13;3.73;;;2.50;;
11139;SDS011;5624;49.388;11.350;2023-05-07T00:54:41;3.73;;;2.13;;
11139;SDS011;5624;49.388;11.350;2023-05-07T00:57:07;2.47;;;2.27;;
11139;SDS011;5624;49.388;11.350;2023-05-07T00:59:36;4.50;;;2.17;;
11139;SDS011;5624;49.388;11.350;2023-05-07T01:02:01;4.27;;;2.20;;
11139;SDS011;5624;49.388;11.350;2023-05-07T01:04:27;6.13;;;2.37;;
11139;SDS011;5624;49.388;11.350;2023-05-07T01:06:53;2.73;;;2.10;;
11139;SDS011;5624;49.388;11.350;2023-05-07T01:09:21;3.73;;;2.30;;
11139;SDS011;5624;49.388;11.350;2023-05-07T01:11:48;5.37;;;2.70;;
11139;SDS011;5624;49.388;11.350;2023-05-07T01:14:15;3.50;;;2.70;;
11139;SDS011;5624;49.388;11.350;2023-05-07T01:16:42;3.00;;;2.30;;
11139;SDS011;5624;49.388;11.350;2023-05-07T01:19:10;4.10;;;2.70;;
11139;SDS011;5624;49.388;11.350;2023-05-07T01:21:39;5.23;;;2.83;;
11139;SDS011;5624;49.388;11.350;2023-05-07T01:24:11;5.63;;;2.60;;
11139;SDS011;5624;49.388;11.350;2023-05-07T01:26:37;3.23;;;2.60;;
11139;SDS011;5624;49.388;11.350;2023-05-07T01:29:05;3.77;;;2.83;;
11139;SDS011;5624;49.388;11.350;2023-05-07T01:31:31;4.80;;;2.83;;
11139;SDS011;5624;49.388;11.350;2023-05-07T01:33:59;3.50;;;2.93;;
11139;SDS011;5624;49.388;11.350;2023-05-07T01:36:27;4.00;;;2.80;;
11139;SDS011;5624;49.388;11.350;2023-05-07T01:38:53;4.47;;;2.93;;
11139;SDS011;5624;49.388;11.350;2023-05-07T01:41:19;5.33;;;3.17;;
11139;SDS011;5624;49.388;11.350;2023-05-07T01:43:46;3.97;;;3.27;;
11139;SDS011;5624;49.388;11.350;2023-05-07T01:46:12;4.10;;;3.43;;
11139;SDS011;5624;49.388;11.350;2023-05-07T01:48:38;3.93;;;3.47;;
11139;SDS011;5624;49.388;11.350;2023-05-07T01:51:05;4.47;;;3.57;;
11139;SDS011;5624;49.388;11.350;2023-05-07T01:53:37;3.90;;;3.50;;
11139;SDS011;5624;49.388;11.350;2023-05-07T01:56:05;5.63;;;3.53;;
11139;SDS011;5624;49.388;11.350;2023-05-07T01:58:31;5.63;;;3.37;;
11139;SDS011;5624;49.388;11.350;2023-05-07T02:00:57;5.87;;;3.30;;
11139;SDS011;5624;49.388;11.350;2023-05-07T02:03:22;6.10;;;3.43;;
11139;SDS011;5624;49.388;11.350;2023-05-07T02:05:48;7.90;;;3.80;;
11139;SDS011;5624;49.388;11.350;2023-05-07T02:08:13;5.00;;;3.50;;
11139;SDS011;5624;49.388;11.350;2023-05-07T02:10:39;5.00;;;3.57;;
11139;SDS011;5624;49.388;11.350;2023-05-07T02:13:05;3.57;;;2.97;;
11139;SDS011;5624;49.388;11.350;2023-05-07T02:15:30;5.30;;;3.93;;
11139;SDS011;5624;49.388;11.350;2023-05-07T02:18:02;7.80;;;3.80;;
11139;SDS011;5624;49.388;11.350;2023-05-07T02:20:29;5.07;;;3.87;;
11139;SDS011;5624;49.388;11.350;2023-05-07T02:22:54;9.47;;;4.33;;
11139;SDS011;5624;49.388;11.350;2023-05-07T02:25:20;6.87;;;4.10;;
11139;SDS011;5624;49.388;11.350;2023-05-07T02:27:46;6.27;;;4.00;;
11139;SDS011;5624;49.388;11.350;2023-05-07T02:30:11;7.27;;;4.20;;
11139;SDS011;5624;49.388;11.350;2023-05-07T02:32:37;5.73;;;4.43;;
11139;SDS011;5624;49.388;11.350;2023-05-07T02:35:03;6.33;;;4.63;;
11139;SDS011;5624;49.388;11.350;2023-05-07T02:37:29;5.63;;;4.70;;
11139;SDS011;5624;49.388;11.350;2023-05-07T02:39:54;7.30;;;4.73;;
11139;SDS011;5624;49.388;11.350;2023-05-07T02:42:20;5.33;;;4.10;;
11139;SDS011;5624;49.388;11.350;2023-05-07T02:44:45;5.30;;;4.30;;
11139;SDS011;5624;49.388;11.350;2023-05-07T02:47:11;6.07;;;4.93;;
11139;SDS011;5624;49.388;11.350;2023-05-07T02:49:38;6.50;;;4.63;;
11139;SDS011;5624;49.388;11.350;2023-05-07T02:52:04;8.23;;;5.33;;
11139;SDS011;5624;49.388;11.350;2023-05-07T02:54:29;9.17;;;5.40;;
11139;SDS011;5624;49.388;11.350;2023-05-07T02:56:55;8.50;;;5.53;;
11139;SDS011;5624;49.388;11.350;2023-05-07T02:59:21;6.83;;;4.87;;
11139;SDS011;5624;49.388;11.350;2023-05-07T03:01:46;6.80;;;4.57;;
11139;SDS011;5624;49.388;11.350;2023-05-07T03:04:13;6.43;;;5.43;;
11139;SDS011;5624;49.388;11.350;2023-05-07T03:06:38;7.67;;;5.70;;
11139;SDS011;5624;49.388;11.350;2023-05-07T03:09:04;6.40;;;5.30;;
11139;SDS011;5624;49.388;11.350;2023-05-07T03:11:29;7.30;;;6.43;;
11139;SDS011;5624;49.388;11.350;2023-05-07T03:13:55;6.83;;;5.40;;
11139;SDS011;5624;49.388;11.350;2023-05-07T03:16:21;7.53;;;6.03;;
11139;SDS011;5624;49.388;11.350;2023-05-07T03:18:46;7.60;;;6.13;;
11139;SDS011;5624;49.388;11.350;2023-05-07T03:21:12;10.23;;;5.83;;
11139;SDS011;5624;49.388;11.350;2023-05-07T03:23:37;8.43;;;5.93;;
11139;SDS011;5624;49.388;11.350;2023-05-07T03:26:03;9.37;;;6.53;;
11139;SDS011;5624;49.388;11.350;2023-05-07T03:28:29;8.90;;;6.83;;
11139;SDS011;5624;49.388;11.350;2023-05-07T03:30:54;10.27;;;6.37;;
11139;SDS011;5624;49.388;11.350;2023-05-07T03:33:20;7.70;;;6.10;;
11139;SDS011;5624;49.388;11.350;2023-05-07T03:35:46;8.90;;;7.37;;
11139;SDS011;5624;49.388;11.350;2023-05-07T03:38:11;9.50;;;6.80;;
11139;SDS011;5624;49.388;11.350;2023-05-07T03:40:37;9.93;;;7.53;;
11139;SDS011;5624;49.388;11.350;2023-05-07T03:43:02;9.23;;;7.27;;
11139;SDS011;5624;49.388;11.350;2023-05-07T03:45:28;10.13;;;7.17;;
11139;SDS011;5624;49.388;11.350;2023-05-07T03:47:53;10.70;;;7.17;;
11139;SDS011;5624;49.388;11.350;2023-05-07T03:50:19;8.93;;;7.40;;
11139;SDS011;5624;49.388;11.350;2023-05-07T03:52:45;10.20;;;7.17;;
11139;SDS011;5624;49.388;11.350;2023-05-07T03:55:10;11.10;;;7.63;;
11139;SDS011;5624;49.388;11.350;2023-05-07T03:57:36;8.80;;;6.53;;
11139;SDS011;5624;49.388;11.350;2023-05-07T04:00:02;10.07;;;7.23;;
11139;SDS011;5624;49.388;11.350;2023-05-07T04:02:29;10.27;;;7.17;;
11139;SDS011;5624;49.388;11.350;2023-05-07T04:04:55;9.67;;;7.63;;
11139;SDS011;5624;49.388;11.350;2023-05-07T04:07:21;9.30;;;7.63;;
11139;SDS011;5624;49.388;11.350;2023-05-07T04:09:46;8.83;;;7.20;;
11139;SDS011;5624;49.388;11.350;2023-05-07T04:12:12;11.23;;;7.33;;
11139;SDS011;5624;49.388;11.350;2023-05-07T04:14:37;12.63;;;7.10;;
11139;SDS011;5624;49.388;11.350;2023-05-07T04:17:03;10.20;;;7.27;;
11139;SDS011;5624;49.388;11.350;2023-05-07T04:19:29;9.40;;;7.00;;
11139;SDS011;5624;49.388;11.350;2023-05-07T04:21:54;8.30;;;6.67;;
11139;SDS011;5624;49.388;11.350;2023-05-07T04:24:20;10.20;;;7.43;;
11139;SDS011;5624;49.388;11.350;2023-05-07T04:26:46;11.73;;;7.77;;
11139;SDS011;5624;49.388;11.350;2023-05-07T04:29:12;11.30;;;7.63;;
11139;SDS011;5624;49.388;11.350;2023-05-07T04:31:37;9.40;;;7.27;;
11139;SDS011;5624;49.388;11.350;2023-05-07T04:34:03;11.30;;;8.60;;
11139;SDS011;5624;49.388;11.350;2023-05-07T04:36:28;11.50;;;8.20;;
11139;SDS011;5624;49.388;11.350;2023-05-07T04:38:55;12.07;;;8.13;;
11139;SDS011;5624;49.388;11.350;2023-05-07T04:41:20;8.43;;;7.37;;
11139;SDS011;5624;49.388;11.350;2023-05-07T04:43:46;8.83;;;7.37;;
11139;SDS011;5624;49.388;11.350;2023-05-07T04:46:11;11.07;;;7.80;;
11139;SDS011;5624;49.388;11.350;2023-05-07T04:48:37;11.23;;;8.77;;
11139;SDS011;5624;49.388;11.350;2023-05-07T04:51:03;11.00;;;7.40;;
11139;SDS011;5624;49.388;11.350;2023-05-07T04:53:28;9.83;;;7.07;;
11139;SDS011;5624;49.388;11.350;2023-05-07T04:55:55;9.57;;;8.07;;
11139;SDS011;5624;49.388;11.350;2023-05-07T04:58:24;8.87;;;7.27;;
11139;SDS011;5624;49.388;11.350;2023-05-07T05:00:50;10.27;;;7.93;;
11139;SDS011;5624;49.388;11.350;2023-05-07T05:03:15;11.57;;;7.97;;
11139;SDS011;5624;49.388;11.350;2023-05-07T05:05:41;12.73;;;8.20;;
11139;SDS011;5624;49.388;11.350;2023-05-07T05:08:07;11.33;;;7.90;;
11139;SDS011;5624;49.388;11.350;2023-05-07T05:10:32;10.53;;;8.00;;
11139;SDS011;5624;49.388;11.350;2023-05-07T05:12:58;8.53;;;7.63;;
11139;SDS011;5624;49.388;11.350;2023-05-07T05:15:24;9.47;;;7.80;;
11139;SDS011;5624;49.388;11.350;2023-05-07T05:17:49;9.77;;;7.37;;
11139;SDS011;5624;49.388;11.350;2023-05-07T05:20:15;9.67;;;7.77;;
11139;SDS011;5624;49.388;11.350;2023-05-07T05:22:41;9.47;;;7.80;;
11139;SDS011;5624;49.388;11.350;2023-05-07T05:25:07;8.37;;;7.43;;
11139;SDS011;5624;49.388;11.350;2023-05-07T05:27:33;8.73;;;7.37;;
11139;SDS011;5624;49.388;11.350;2023-05-07T05:30:00;8.53;;;7.20;;
11139;SDS011;5624;49.388;11.350;2023-05-07T05:32:26;11.70;;;7.50;;
11139;SDS011;5624;49.388;11.350;2023-05-07T05:34:51;8.90;;;6.97;;
11139;SDS011;5624;49.388;11.350;2023-05-07T05:37:17;9.23;;;7.20;;
11139;SDS011;5624;49.388;11.350;2023-05-07T05:39:43;9.67;;;7.43;;
11139;SDS011;5624;49.388;11.350;2023-05-07T05:42:09;13.53;;;7.53;;
11139;SDS011;5624;49.388;11.350;2023-05-07T05:44:34;9.47;;;6.93;;
11139;SDS011;5624;49.388;11.350;2023-05-07T05:47:00;9.40;;;6.70;;
11139;SDS011;5624;49.388;11.350;2023-05-07T05:49:25;9.57;;;6.90;;
11139;SDS011;5624;49.388;11.350;2023-05-07T05:51:51;10.03;;;6.63;;
11139;SDS011;5624;49.388;11.350;2023-05-07T05:54:17;8.10;;;6.40;;
11139;SDS011;5624;49.388;11.350;2023-05-07T05:56:42;7.30;;;6.00;;
11139;SDS011;5624;49.388;11.350;2023-05-07T05:59:08;7.47;;;6.07;;
11139;SDS011;5624;49.388;11.350;2023-05-07T06:01:33;8.73;;;6.10;;
11139;SDS011;5624;49.388;11.350;2023-05-07T06:03:59;7.75;;;6.40;;
11139;SDS011;5624;49.388;11.350;2023-05-07T06:06:25;7.95;;;6.53;;
11139;SDS011;5624;49.388;11.350;2023-05-07T06:08:50;7.20;;;6.13;;
11139;SDS011;5624;49.388;11.350;2023-05-07T06:11:16;9.30;;;7.03;;
11139;SDS011;5624;49.388;11.350;2023-05-07T06:13:42;7.30;;;6.03;;
11139;SDS011;5624;49.388;11.350;2023-05-07T06:16:07;11.20;;;6.93;;
11139;SDS011;5624;49.388;11.350;2023-05-07T06:18:33;9.60;;;7.00;;
11139;SDS011;5624;49.388;11.350;2023-05-07T06:21:01;9.07;;;6.50;;
11139;SDS011;5624;49.388;11.350;2023-05-07T06:23:26;7.83;;;6.37;;
11139;SDS011;5624;49.388;11.350;2023-05-07T06:25:52;9.93;;;5.93;;
11139;SDS011;5624;49.388;11.350;2023-05-07T06:28:18;9.43;;;7.03;;
11139;SDS011;5624;49.388;11.350;2023-05-07T06:30:43;7.10;;;6.17;;
11139;SDS011;5624;49.388;11.350;2023-05-07T06:33:10;9.60;;;6.93;;
11139;SDS011;5624;49.388;11.350;2023-05-07T06:35:35;7.37;;;6.03;;
11139;SDS011;5624;49.388;11.350;2023-05-07T06:38:01;9.37;;;6.20;;
11139;SDS011;5624;49.388;11.350;2023-05-07T06:40:27;9.63;;;7.17;;
11139;SDS011;5624;49.388;11.350;2023-05-07T06:42:52;7.70;;;6.30;;
11139;SDS011;5624;49.388;11.350;2023-05-07T06:45:19;7.78;;;6.10;;
11139;SDS011;5624;49.388;11.350;2023-05-07T06:47:45;9.73;;;6.88;;
11139;SDS011;5624;49.388;11.350;2023-05-07T06:50:11;8.68;;;6.88;;
11139;SDS011;5624;49.388;11.350;2023-05-07T06:52:38;9.02;;;6.63;;
11139;SDS011;5624;49.388;11.350;2023-05-07T06:55:03;8.20;;;6.10;;
11139;SDS011;5624;49.388;11.350;2023-05-07T06:57:29;7.70;;;6.10;;
11139;SDS011;5624;49.388;11.350;2023-05-07T06:59:55;10.32;;;6.85;;
11139;SDS011;5624;49.388;11.350;2023-05-07T07:02:21;8.73;;;6.78;;
11139;SDS011;5624;49.388;11.350;2023-05-07T07:04:46;8.75;;;6.63;;
11139;SDS011;5624;49.388;11.350;2023-05-07T07:07:12;7.60;;;6.50;;
11139;SDS011;5624;49.388;11.350;2023-05-07T07:09:38;12.23;;;7.60;;
11139;SDS011;5624;49.388;11.350;2023-05-07T07:12:03;7.95;;;6.35;;
11139;SDS011;5624;49.388;11.350;2023-05-07T07:14:29;8.75;;;6.57;;
11139;SDS011;5624;49.388;11.350;2023-05-07T07:16:54;7.30;;;6.25;;
11139;SDS011;5624;49.388;11.350;2023-05-07T07:19:20;7.28;;;6.28;;
11139;SDS011;5624;49.388;11.350;2023-05-07T07:21:46;8.23;;;6.55;;
11139;SDS011;5624;49.388;11.350;2023-05-07T07:24:12;7.07;;;6.32;;
11139;SDS011;5624;49.388;11.350;2023-05-07T07:26:43;6.63;;;5.90;;
11139;SDS011;5624;49.388;11.350;2023-05-07T07:29:09;7.32;;;6.32;;
11139;SDS011;5624;49.388;11.350;2023-05-07T07:31:35;6.88;;;6.13;;
11139;SDS011;5624;49.388;11.350;2023-05-07T07:34:00;7.30;;;6.20;;
11139;SDS011;5624;49.388;11.350;2023-05-07T07:36:26;7.25;;;5.97;;
11139;SDS011;5624;49.388;11.350;2023-05-07T07:38:52;6.88;;;6.18;;
11139;SDS011;5624;49.388;11.350;2023-05-07T07:41:18;8.55;;;6.13;;
11139;SDS011;5624;49.388;11.350;2023-05-07T07:43:44;7.13;;;6.00;;
11139;SDS011;5624;49.388;11.350;2023-05-07T07:46:11;6.93;;;5.47;;
11139;SDS011;5624;49.388;11.350;2023-05-07T07:48:37;7.88;;;6.38;;
11139;SDS011;5624;49.388;11.350;2023-05-07T07:51:03;7.32;;;5.82;;
11139;SDS011;5624;49.388;11.350;2023-05-07T07:53:28;6.38;;;5.63;;
11139;SDS011;5624;49.388;11.350;2023-05-07T07:55:54;6.03;;;5.43;;
11139;SDS011;5624;49.388;11.350;2023-05-07T07:58:20;8.20;;;5.97;;
11139;SDS011;5624;49.388;11.350;2023-05-07T08:00:47;6.30;;;5.30;;
11139;SDS011;5624;49.388;11.350;2023-05-07T08:03:12;8.02;;;6.53;;
11139;SDS011;5624;49.388;11.350;2023-05-07T08:05:39;6.32;;;5.65;;
11139;SDS011;5624;49.388;11.350;2023-05-07T08:08:05;7.40;;;6.05;;
11139;SDS011;5624;49.388;11.350;2023-05-07T08:10:31;6.60;;;5.65;;
11139;SDS011;5624;49.388;11.350;2023-05-07T08:12:59;6.05;;;5.28;;
11139;SDS011;5624;49.388;11.350;2023-05-07T08:15:25;6.88;;;5.80;;
11139;SDS011;5624;49.388;11.350;2023-05-07T08:17:51;6.18;;;5.35;;
11139;SDS011;5624;49.388;11.350;2023-05-07T08:20:16;7.53;;;6.13;;
11139;SDS011;5624;49.388;11.350;2023-05-07T08:22:42;8.95;;;6.68;;
11139;SDS011;5624;49.388;11.350;2023-05-07T08:25:08;8.50;;;6.55;;
11139;SDS011;5624;49.388;11.350;2023-05-07T08:27:33;8.27;;;5.75;;
11139;SDS011;5624;49.388;11.350;2023-05-07T08:29:59;6.72;;;5.30;;
11139;SDS011;5624;49.388;11.350;2023-05-07T08:32:25;6.72;;;5.13;;
11139;SDS011;5624;49.388;11.350;2023-05-07T08:34:50;5.50;;;4.82;;
11139;SDS011;5624;49.388;11.350;2023-05-07T08:37:16;6.00;;;5.28;;
11139;SDS011;5624;49.388;11.350;2023-05-07T08:39:41;6.57;;;5.57;;
11139;SDS011;5624;49.388;11.350;2023-05-07T08:42:07;7.50;;;5.85;;
11139;SDS011;5624;49.388;11.350;2023-05-07T08:44:36;5.88;;;5.28;;
11139;SDS011;5624;49.388;11.350;2023-05-07T08:47:06;6.75;;;5.13;;
11139;SDS011;5624;49.388;11.350;2023-05-07T08:49:32;7.20;;;5.10;;
11139;SDS011;5624;49.388;11.350;2023-05-07T08:51:59;5.20;;;4.57;;
11139;SDS011;5624;49.388;11.350;2023-05-07T08:54:25;8.50;;;5.30;;
11139;SDS011;5624;49.388;11.350;2023-05-07T08:56:52;6.07;;;4.80;;
11139;SDS011;5624;49.388;11.350;2023-05-07T08:59:18;7.07;;;5.10;;
11139;SDS011;5624;49.388;11.350;2023-05-07T09:01:43;9.00;;;5.35;;
11139;SDS011;5624;49.388;11.350;2023-05-07T09:04:09;8.57;;;4.97;;
11139;SDS011;5624;49.388;11.350;2023-05-07T09:06:35;6.53;;;4.88;;
11139;SDS011;5624;49.388;11.350;2023-05-07T09:09:02;7.45;;;5.35;;
11139;SDS011;5624;49.388;11.350;2023-05-07T09:11:30;5.38;;;4.47;;
11139;SDS011;5624;49.388;11.350;2023-05-07T09:13:56;8.02;;;4.82;;
11139;SDS011;5624;49.388;11.350;2023-05-07T09:16:29;5.65;;;4.50;;
11139;SDS011;5624;49.388;11.350;2023-05-07T09:18:57;6.45;;;4.40;;
11139;SDS011;5624;49.388;11.350;2023-05-07T09:21:24;5.20;;;4.70;;
11139;SDS011;5624;49.388;11.350;2023-05-07T09:23:51;4.95;;;4.45;;
11139;SDS011;5624;49.388;11.350;2023-05-07T09:26:17;6.57;;;4.68;;
11139;SDS011;5624;49.388;11.350;2023-05-07T09:28:45;6.05;;;4.32;;
11139;SDS011;5624;49.388;11.350;2023-05-07T09:31:11;4.68;;;3.75;;
11139;SDS011;5624;49.388;11.350;2023-05-07T09:33:38;6.18;;;4.60;;
11139;SDS011;5624;49.388;11.350;2023-05-07T09:36:04;6.38;;;5.07;;
11139;SDS011;5624;49.388;11.350;2023-05-07T09:38:34;5.68;;;4.25;;
11139;SDS011;5624;49.388;11.350;2023-05-07T09:41:01;6.43;;;5.15;;
11139;SDS011;5624;49.388;11.350;2023-05-07T09:43:31;6.10;;;4.35;;
11139;SDS011;5624;49.388;11.350;2023-05-07T09:46:23;4.30;;;3.83;;
11139;SDS011;5624;49.388;11.350;2023-05-07T09:48:50;6.03;;;4.88;;
11139;SDS011;5624;49.388;11.350;2023-05-07T09:51:30;6.97;;;4.63;;
11139;SDS011;5624;49.388;11.350;2023-05-07T09:54:04;6.00;;;4.20;;
11139;SDS011;5624;49.388;11.350;2023-05-07T09:56:31;6.05;;;3.97;;
11139;SDS011;5624;49.388;11.350;2023-05-07T09:58:58;5.38;;;4.53;;
11139;SDS011;5624;49.388;11.350;2023-05-07T10:01:25;6.30;;;4.55;;
11139;SDS011;5624;49.388;11.350;2023-05-07T10:03:52;5.70;;;4.65;;
11139;SDS011;5624;49.388;11.350;2023-05-07T10:06:19;6.80;;;4.55;;
11139;SDS011;5624;49.388;11.350;2023-05-07T10:08:45;5.60;;;4.28;;
11139;SDS011;5624;49.388;11.350;2023-05-07T10:11:11;5.38;;;4.13;;
11139;SDS011;5624;49.388;11.350;2023-05-07T10:13:38;5.70;;;3.58;;
11139;SDS011;5624;49.388;11.350;2023-05-07T10:16:05;5.18;;;3.92;;
11139;SDS011;5624;49.388;11.350;2023-05-07T10:18:31;4.72;;;3.85;;
11139;SDS011;5624;49.388;11.350;2023-05-07T10:21:07;5.25;;;4.25;;
11139;SDS011;5624;49.388;11.350;2023-05-07T10:23:41;5.55;;;4.28;;
11139;SDS011;5624;49.388;11.350;2023-05-07T10:26:14;5.90;;;4.47;;
11139;SDS011;5624;49.388;11.350;2023-05-07T10:28:56;4.72;;;4.22;;
11139;SDS011;5624;49.388;11.350;2023-05-07T10:34:11;5.60;;;5.10;;
11139;SDS011;5624;49.388;11.350;2023-05-07T10:36:41;5.45;;;4.82;;
11139;SDS011;5624;49.388;11.350;2023-05-07T10:39:08;5.20;;;4.15;;
11139;SDS011;5624;49.388;11.350;2023-05-07T10:41:34;5.63;;;4.25;;
11139;SDS011;5624;49.388;11.350;2023-05-07T10:44:00;7.40;;;3.70;;
11139;SDS011;5624;49.388;11.350;2023-05-07T10:46:27;4.22;;;3.40;;
11139;SDS011;5624;49.388;11.350;2023-05-07T10:51:31;5.70;;;4.18;;
11139;SDS011;5624;49.388;11.350;2023-05-07T10:56:38;4.82;;;3.90;;
11139;SDS011;5624;49.388;11.350;2023-05-07T11:04:24;5.63;;;3.80;;
11139;SDS011;5624;49.388;11.350;2023-05-07T11:15:06;6.97;;;3.67;;
11139;SDS011;5624;49.388;11.350;2023-05-07T11:17:32;4.97;;;3.05;;
11139;SDS011;5624;49.388;11.350;2023-05-07T11:20:00;3.38;;;2.75;;
11139;SDS011;5624;49.388;11.350;2023-05-07T11:25:01;5.30;;;3.60;;
11139;SDS011;5624;49.388;11.350;2023-05-07T11:27:27;3.47;;;2.90;;
11139;SDS011;5624;49.388;11.350;2023-05-07T11:29:54;4.72;;;2.90;;
11139;SDS011;5624;49.388;11.350;2023-05-07T11:32:27;6.07;;;3.05;;
11139;SDS011;5624;49.388;11.350;2023-05-07T11:34:54;4.65;;;2.80;;
11139;SDS011;5624;49.388;11.350;2023-05-07T11:37:20;3.58;;;2.85;;
11139;SDS011;5624;49.388;11.350;2023-05-07T11:39:47;5.60;;;3.10;;
11139;SDS011;5624;49.388;11.350;2023-05-07T11:42:27;4.15;;;2.55;;
11139;SDS011;5624;49.388;11.350;2023-05-07T11:44:54;3.35;;;1.50;;
11139;SDS011;5624;49.388;11.350;2023-05-07T11:47:20;3.13;;;1.95;;
11139;SDS011;5624;49.388;11.350;2023-05-07T11:49:47;4.93;;;2.70;;
11139;SDS011;5624;49.388;11.350;2023-05-07T11:52:14;5.03;;;2.63;;
11139;SDS011;5624;49.388;11.350;2023-05-07T11:54:40;3.47;;;2.47;;
11139;SDS011;5624;49.388;11.350;2023-05-07T11:57:05;4.72;;;2.47;;
11139;SDS011;5624;49.388;11.350;2023-05-07T11:59:38;2.50;;;1.88;;
11139;SDS011;5624;49.388;11.350;2023-05-07T12:02:09;3.72;;;2.38;;
11139;SDS011;5624;49.388;11.350;2023-05-07T12:04:35;3.40;;;2.35;;
11139;SDS011;5624;49.388;11.350;2023-05-07T12:07:03;2.78;;;2.03;;
11139;SDS011;5624;49.388;11.350;2023-05-07T12:12:04;3.85;;;2.47;;
11139;SDS011;5624;49.388;11.350;2023-05-07T12:14:30;4.10;;;3.05;;
11139;SDS011;5624;49.388;11.350;2023-05-07T12:16:57;3.90;;;3.20;;
11139;SDS011;5624;49.388;11.350;2023-05-07T12:19:30;3.78;;;3.15;;
11139;SDS011;5624;49.388;11.350;2023-05-07T12:21:56;3.85;;;3.25;;
11139;SDS011;5624;49.388;11.350;2023-05-07T12:24:23;3.60;;;2.90;;
11139;SDS011;5624;49.388;11.350;2023-05-07T12:26:48;3.25;;;2.90;;
11139;SDS011;5624;49.388;11.350;2023-05-07T12:29:14;3.67;;;3.20;;
11139;SDS011;5624;49.388;11.350;2023-05-07T12:31:43;5.60;;;3.80;;
11139;SDS011;5624;49.388;11.350;2023-05-07T12:34:10;3.88;;;3.38;;
11139;SDS011;5624;49.388;11.350;2023-05-07T12:36:37;3.95;;;2.83;;
11139;SDS011;5624;49.388;11.350;2023-05-07T12:39:04;3.47;;;3.03;;
11139;SDS011;5624;49.388;11.350;2023-05-07T12:41:30;3.85;;;3.10;;
11139;SDS011;5624;49.388;11.350;2023-05-07T12:44:16;4.68;;;3.20;;
11139;SDS011;5624;49.388;11.350;2023-05-07T12:46:42;3.30;;;2.53;;
11139;SDS011;5624;49.388;11.350;2023-05-07T12:49:07;3.53;;;2.95;;
11139;SDS011;5624;49.388;11.350;2023-05-07T12:51:34;4.35;;;3.10;;
11139;SDS011;5624;49.388;11.350;2023-05-07T12:54:00;3.88;;;2.80;;
11139;SDS011;5624;49.388;11.350;2023-05-07T12:56:25;3.50;;;2.65;;
11139;SDS011;5624;49.388;11.350;2023-05-07T12:58:51;5.15;;;2.83;;
11139;SDS011;5624;49.388;11.350;2023-05-07T13:01:21;3.45;;;2.50;;
11139;SDS011;5624;49.388;11.350;2023-05-07T13:03:53;5.32;;;2.90;;
11139;SDS011;5624;49.388;11.350;2023-05-07T13:06:19;3.70;;;2.90;;
11139;SDS011;5624;49.388;11.350;2023-05-07T13:08:45;3.13;;;2.83;;
11139;SDS011;5624;49.388;11.350;2023-05-07T13:11:11;3.85;;;2.63;;
11139;SDS011;5624;49.388;11.350;2023-05-07T13:13:38;5.60;;;2.70;;
11139;SDS011;5624;49.388;11.350;2023-05-07T13:16:05;4.00;;;2.85;;
11139;SDS011;5624;49.388;11.350;2023-05-07T13:18:33;4.00;;;3.00;;
11139;SDS011;5624;49.388;11.350;2023-05-07T13:20:59;3.30;;;3.00;;
11139;SDS011;5624;49.388;11.350;2023-05-07T13:23:25;3.17;;;2.67;;
11139;SDS011;5624;49.388;11.350;2023-05-07T13:25:51;4.07;;;2.60;;
11139;SDS011;5624;49.388;11.350;2023-05-07T13:28:19;4.20;;;3.42;;
11139;SDS011;5624;49.388;11.350;2023-05-07T13:30:45;3.50;;;2.83;;
11139;SDS011;5624;49.388;11.350;2023-05-07T13:33:11;3.28;;;2.83;;
11139;SDS011;5624;49.388;11.350;2023-05-07T13:35:37;3.10;;;2.78;;
11139;SDS011;5624;49.388;11.350;2023-05-07T13:38:03;4.25;;;3.50;;
11139;SDS011;5624;49.388;11.350;2023-05-07T13:40:29;7.40;;;3.00;;
11139;SDS011;5624;49.388;11.350;2023-05-07T13:42:56;5.70;;;3.10;;
11139;SDS011;5624;49.388;11.350;2023-05-07T13:45:26;4.93;;;3.05;;
11139;SDS011;5624;49.388;11.350;2023-05-07T13:47:54;4.47;;;3.13;;
11139;SDS011;5624;49.388;11.350;2023-05-07T13:50:20;4.13;;;3.08;;
11139;SDS011;5624;49.388;11.350;2023-05-07T13:52:46;3.88;;;3.47;;
11139;SDS011;5624;49.388;11.350;2023-05-07T13:55:18;4.82;;;3.65;;
11139;SDS011;5624;49.388;11.350;2023-05-07T13:57:45;5.35;;;3.70;;
11139;SDS011;5624;49.388;11.350;2023-05-07T14:00:12;4.30;;;3.65;;
11139;SDS011;5624;49.388;11.350;2023-05-07T14:02:39;5.70;;;3.80;;
11139;SDS011;5624;49.388;11.350;2023-05-07T14:05:05;5.85;;;3.92;;
11139;SDS011;5624;49.388;11.350;2023-05-07T14:07:31;5.57;;;3.22;;
11139;SDS011;5624;49.388;11.350;2023-05-07T14:09:57;3.97;;;3.10;;
11139;SDS011;5624;49.388;11.350;2023-05-07T14:12:22;5.03;;;3.53;;
11139;SDS011;5624;49.388;11.350;2023-05-07T14:14:48;4.47;;;3.53;;
11139;SDS011;5624;49.388;11.350;2023-05-07T14:17:15;4.80;;;4.00;;
11139;SDS011;5624;49.388;11.350;2023-05-07T14:19:42;5.70;;;3.92;;
11139;SDS011;5624;49.388;11.350;2023-05-07T14:22:08;5.13;;;4.28;;
11139;SDS011;5624;49.388;11.350;2023-05-07T14:24:33;5.25;;;4.20;;
11139;SDS011;5624;49.388;11.350;2023-05-07T14:26:59;4.28;;;3.70;;
11139;SDS011;5624;49.388;11.350;2023-05-07T14:29:25;6.60;;;4.05;;
11139;SDS011;5624;49.388;11.350;2023-05-07T14:31:50;5.45;;;3.80;;
11139;SDS011;5624;49.388;11.350;2023-05-07T14:34:16;4.57;;;3.70;;
11139;SDS011;5624;49.388;11.350;2023-05-07T14:36:42;6.75;;;3.80;;
11139;SDS011;5624;49.388;11.350;2023-05-07T14:39:09;5.32;;;3.75;;
11139;SDS011;5624;49.388;11.350;2023-05-07T14:41:35;5.40;;;3.53;;
11139;SDS011;5624;49.388;11.350;2023-05-07T14:44:00;4.45;;;3.55;;
11139;SDS011;5624;49.388;11.350;2023-05-07T14:46:28;8.38;;;3.75;;
11139;SDS011;5624;49.388;11.350;2023-05-07T14:48:54;4.88;;;3.92;;
11139;SDS011;5624;49.388;11.350;2023-05-07T14:51:21;7.80;;;3.90;;
11139;SDS011;5624;49.388;11.350;2023-05-07T14:53:46;6.10;;;4.13;;
11139;SDS011;5624;49.388;11.350;2023-05-07T14:56:12;5.57;;;3.70;;
11139;SDS011;5624;49.388;11.350;2023-05-07T14:58:38;4.80;;;3.35;;
11139;SDS011;5624;49.388;11.350;2023-05-07T15:01:03;4.70;;;3.78;;
11139;SDS011;5624;49.388;11.350;2023-05-07T15:03:30;6.90;;;4.32;;
11139;SDS011;5624;49.388;11.350;2023-05-07T15:05:55;5.95;;;4.15;;
11139;SDS011;5624;49.388;11.350;2023-05-07T15:08:21;5.63;;;4.32;;